Jordanville, New York
Current Conditions -  °F | °C
As of 6:53 PM on Wednesday 28 Jan 2015 (Local Time) from KRME Reporting Station
Clear Clear  
Wind Chill:   Ceiling: Unl
Heat Index: 13°   Visibility: 10mi
Dew Point: -2°   Wind: 5mph
Humidity: 51%   Direction: 310°NW
Pressure: 30.32"   Gusts: NA
Location:  42.91°N, 74.95°W
Report Text: KRME 282353Z 31004KT 10SM CLR M11/M19 A3032 RMK AO2 SLP277 60000 T11061189 11056 21106 51026
Loading
Personal Weather Stations






























Interactive Weather Map New forecast layout! Learn more

10-Day Weather Forecast

Advertisements
Track Severe Weather on mobile